sensor_id;sensor_type;location;lat;lon;timestamp;temperature;humidity
2162;DHT22;1087;50.226;8.682;2023-05-19T00:01:54;13.90;99.90
2162;DHT22;1087;50.226;8.682;2023-05-19T00:04:19;13.90;99.90
2162;DHT22;1087;50.226;8.682;2023-05-19T00:06:49;13.90;99.90
2162;DHT22;1087;50.226;8.682;2023-05-19T00:09:15;13.80;99.90
2162;DHT22;1087;50.226;8.682;2023-05-19T00:11:41;13.80;99.90
2162;DHT22;1087;50.226;8.682;2023-05-19T00:14:08;13.80;99.90
2162;DHT22;1087;50.226;8.682;2023-05-19T00:16:34;13.70;99.90
2162;DHT22;1087;50.226;8.682;2023-05-19T00:19:02;13.60;99.90
2162;DHT22;1087;50.226;8.682;2023-05-19T00:21:28;13.50;99.90
2162;DHT22;1087;50.226;8.682;2023-05-19T00:23:55;13.60;99.90
2162;DHT22;1087;50.226;8.682;2023-05-19T00:26:21;13.40;99.90
2162;DHT22;1087;50.226;8.682;2023-05-19T00:28:48;13.20;99.90
2162;DHT22;1087;50.226;8.682;2023-05-19T00:31:13;13.20;99.90
2162;DHT22;1087;50.226;8.682;2023-05-19T00:33:39;13.30;99.90
2162;DHT22;1087;50.226;8.682;2023-05-19T00:36:05;13.30;99.90
2162;DHT22;1087;50.226;8.682;2023-05-19T00:38:32;13.20;99.90
2162;DHT22;1087;50.226;8.682;2023-05-19T00:40:59;13.20;99.90
2162;DHT22;1087;50.226;8.682;2023-05-19T00:43:25;13.30;99.90
2162;DHT22;1087;50.226;8.682;2023-05-19T00:45:50;13.30;99.90
2162;DHT22;1087;50.226;8.682;2023-05-19T00:48:16;13.40;99.90
2162;DHT22;1087;50.226;8.682;2023-05-19T00:50:42;13.40;99.90
2162;DHT22;1087;50.226;8.682;2023-05-19T00:53:08;13.40;99.90
2162;DHT22;1087;50.226;8.682;2023-05-19T00:55:36;13.40;99.90
2162;DHT22;1087;50.226;8.682;2023-05-19T00:58:03;13.40;99.90
2162;DHT22;1087;50.226;8.682;2023-05-19T01:00:30;13.50;99.90
2162;DHT22;1087;50.226;8.682;2023-05-19T01:02:56;13.50;99.90
2162;DHT22;1087;50.226;8.682;2023-05-19T01:05:22;13.50;99.90
2162;DHT22;1087;50.226;8.682;2023-05-19T01:07:47;13.50;99.90
2162;DHT22;1087;50.226;8.682;2023-05-19T01:10:20;13.50;99.90
2162;DHT22;1087;50.226;8.682;2023-05-19T01:12:46;13.50;99.90
2162;DHT22;1087;50.226;8.682;2023-05-19T01:15:12;13.50;99.90
2162;DHT22;1087;50.226;8.682;2023-05-19T01:17:48;13.50;99.90
2162;DHT22;1087;50.226;8.682;2023-05-19T01:20:19;13.50;99.90
2162;DHT22;1087;50.226;8.682;2023-05-19T01:31:20;13.20;99.90
2162;DHT22;1087;50.226;8.682;2023-05-19T01:33:48;13.10;99.90
2162;DHT22;1087;50.226;8.682;2023-05-19T01:36:16;13.00;99.90
2162;DHT22;1087;50.226;8.682;2023-05-19T01:38:45;13.10;99.90
2162;DHT22;1087;50.226;8.682;2023-05-19T01:41:11;13.10;99.90
2162;DHT22;1087;50.226;8.682;2023-05-19T01:43:37;13.10;99.90
2162;DHT22;1087;50.226;8.682;2023-05-19T01:46:04;13.00;99.90
2162;DHT22;1087;50.226;8.682;2023-05-19T01:48:31;12.90;99.90
2162;DHT22;1087;50.226;8.682;2023-05-19T01:50:58;12.80;99.90
2162;DHT22;1087;50.226;8.682;2023-05-19T01:53:24;12.80;99.90
2162;DHT22;1087;50.226;8.682;2023-05-19T01:55:51;12.70;99.90
2162;DHT22;1087;50.226;8.682;2023-05-19T01:58:37;12.70;99.90
2162;DHT22;1087;50.226;8.682;2023-05-19T02:04:18;12.60;99.90
2162;DHT22;1087;50.226;8.682;2023-05-19T02:07:00;12.60;99.90
2162;DHT22;1087;50.226;8.682;2023-05-19T02:09:40;12.60;99.90
2162;DHT22;1087;50.226;8.682;2023-05-19T02:12:10;12.50;99.90
2162;DHT22;1087;50.226;8.682;2023-05-19T02:14:51;12.60;99.90
2162;DHT22;1087;50.226;8.682;2023-05-19T02:17:19;12.50;99.90
2162;DHT22;1087;50.226;8.682;2023-05-19T02:19:45;12.60;99.90
2162;DHT22;1087;50.226;8.682;2023-05-19T02:22:11;12.50;99.90
2162;DHT22;1087;50.226;8.682;2023-05-19T02:24:36;12.40;99.90
2162;DHT22;1087;50.226;8.682;2023-05-19T02:27:03;12.40;99.90
2162;DHT22;1087;50.226;8.682;2023-05-19T02:29:29;12.40;99.90
2162;DHT22;1087;50.226;8.682;2023-05-19T02:31:55;12.40;99.90
2162;DHT22;1087;50.226;8.682;2023-05-19T02:34:20;12.40;99.90
2162;DHT22;1087;50.226;8.682;2023-05-19T02:36:46;12.30;99.90
2162;DHT22;1087;50.226;8.682;2023-05-19T02:39:14;12.30;99.90
2162;DHT22;1087;50.226;8.682;2023-05-19T02:41:39;12.20;99.90
2162;DHT22;1087;50.226;8.682;2023-05-19T02:44:05;12.20;99.90
2162;DHT22;1087;50.226;8.682;2023-05-19T02:46:32;12.20;99.90
2162;DHT22;1087;50.226;8.682;2023-05-19T02:48:57;12.20;99.90
2162;DHT22;1087;50.226;8.682;2023-05-19T02:51:23;12.10;99.90
2162;DHT22;1087;50.226;8.682;2023-05-19T02:53:49;12.10;99.90
2162;DHT22;1087;50.226;8.682;2023-05-19T02:56:15;12.10;99.90
2162;DHT22;1087;50.226;8.682;2023-05-19T02:58:40;12.10;99.90
2162;DHT22;1087;50.226;8.682;2023-05-19T03:01:07;12.10;99.90
2162;DHT22;1087;50.226;8.682;2023-05-19T03:03:33;12.10;99.90
2162;DHT22;1087;50.226;8.682;2023-05-19T03:05:58;12.00;99.90
2162;DHT22;1087;50.226;8.682;2023-05-19T03:08:24;12.00;99.90
2162;DHT22;1087;50.226;8.682;2023-05-19T03:10:49;12.00;99.90
2162;DHT22;1087;50.226;8.682;2023-05-19T03:13:15;12.00;99.90
2162;DHT22;1087;50.226;8.682;2023-05-19T03:15:41;12.00;99.90
2162;DHT22;1087;50.226;8.682;2023-05-19T03:18:07;12.00;99.90
2162;DHT22;1087;50.226;8.682;2023-05-19T03:20:33;12.10;99.90
2162;DHT22;1087;50.226;8.682;2023-05-19T03:22:59;12.00;99.90
2162;DHT22;1087;50.226;8.682;2023-05-19T03:25:25;12.00;99.90
2162;DHT22;1087;50.226;8.682;2023-05-19T03:27:50;12.10;99.90
2162;DHT22;1087;50.226;8.682;2023-05-19T03:30:16;12.10;99.90
2162;DHT22;1087;50.226;8.682;2023-05-19T03:32:41;12.10;99.90
2162;DHT22;1087;50.226;8.682;2023-05-19T03:35:07;12.10;99.90
2162;DHT22;1087;50.226;8.682;2023-05-19T03:37:32;12.10;99.90
2162;DHT22;1087;50.226;8.682;2023-05-19T03:39:58;12.10;99.90
2162;DHT22;1087;50.226;8.682;2023-05-19T03:42:24;12.00;99.90
2162;DHT22;1087;50.226;8.682;2023-05-19T03:44:50;11.90;99.90
2162;DHT22;1087;50.226;8.682;2023-05-19T03:47:16;12.00;99.90
2162;DHT22;1087;50.226;8.682;2023-05-19T03:49:41;12.00;99.90
2162;DHT22;1087;50.226;8.682;2023-05-19T03:52:07;12.00;99.90
2162;DHT22;1087;50.226;8.682;2023-05-19T03:54:34;12.00;99.90
2162;DHT22;1087;50.226;8.682;2023-05-19T03:57:00;12.00;99.90
2162;DHT22;1087;50.226;8.682;2023-05-19T03:59:26;12.00;99.90
2162;DHT22;1087;50.226;8.682;2023-05-19T04:01:52;12.00;99.90
2162;DHT22;1087;50.226;8.682;2023-05-19T04:04:17;12.00;99.90
2162;DHT22;1087;50.226;8.682;2023-05-19T04:06:43;12.00;99.90
2162;DHT22;1087;50.226;8.682;2023-05-19T04:09:11;12.00;99.90
2162;DHT22;1087;50.226;8.682;2023-05-19T04:11:37;12.00;99.90
2162;DHT22;1087;50.226;8.682;2023-05-19T04:14:04;12.00;99.90
2162;DHT22;1087;50.226;8.682;2023-05-19T04:16:29;11.90;99.90
2162;DHT22;1087;50.226;8.682;2023-05-19T04:18:55;11.90;99.90
2162;DHT22;1087;50.226;8.682;2023-05-19T04:21:21;11.90;99.90
2162;DHT22;1087;50.226;8.682;2023-05-19T04:23:46;12.00;99.90
2162;DHT22;1087;50.226;8.682;2023-05-19T04:26:12;12.00;99.90
2162;DHT22;1087;50.226;8.682;2023-05-19T04:28:39;12.00;99.90
2162;DHT22;1087;50.226;8.682;2023-05-19T04:31:06;11.90;99.90
2162;DHT22;1087;50.226;8.682;2023-05-19T04:33:38;11.90;99.90
2162;DHT22;1087;50.226;8.682;2023-05-19T04:36:05;12.00;99.90
2162;DHT22;1087;50.226;8.682;2023-05-19T04:38:36;11.90;99.90
2162;DHT22;1087;50.226;8.682;2023-05-19T04:41:07;12.00;99.90
2162;DHT22;1087;50.226;8.682;2023-05-19T04:43:36;12.00;99.90
2162;DHT22;1087;50.226;8.682;2023-05-19T04:46:06;12.00;99.90
2162;DHT22;1087;50.226;8.682;2023-05-19T04:48:32;12.10;99.90
2162;DHT22;1087;50.226;8.682;2023-05-19T04:50:57;12.00;99.90
2162;DHT22;1087;50.226;8.682;2023-05-19T04:53:26;12.10;99.90
2162;DHT22;1087;50.226;8.682;2023-05-19T04:55:52;12.00;99.90
2162;DHT22;1087;50.226;8.682;2023-05-19T04:58:18;12.00;99.90
2162;DHT22;1087;50.226;8.682;2023-05-19T05:00:44;12.00;99.90
2162;DHT22;1087;50.226;8.682;2023-05-19T05:03:09;12.00;99.90
2162;DHT22;1087;50.226;8.682;2023-05-19T05:05:36;12.00;99.90
2162;DHT22;1087;50.226;8.682;2023-05-19T05:08:02;12.00;99.90
2162;DHT22;1087;50.226;8.682;2023-05-19T05:10:28;12.10;99.90
2162;DHT22;1087;50.226;8.682;2023-05-19T05:12:53;12.20;99.90
2162;DHT22;1087;50.226;8.682;2023-05-19T05:15:20;12.20;99.90
2162;DHT22;1087;50.226;8.682;2023-05-19T05:17:46;12.30;99.90
2162;DHT22;1087;50.226;8.682;2023-05-19T05:20:11;12.30;99.90
2162;DHT22;1087;50.226;8.682;2023-05-19T05:22:38;12.30;99.90
2162;DHT22;1087;50.226;8.682;2023-05-19T05:25:04;12.30;99.90
2162;DHT22;1087;50.226;8.682;2023-05-19T05:27:30;12.40;99.90
2162;DHT22;1087;50.226;8.682;2023-05-19T05:29:56;12.40;99.90
2162;DHT22;1087;50.226;8.682;2023-05-19T05:32:21;12.50;99.90
2162;DHT22;1087;50.226;8.682;2023-05-19T05:34:47;12.50;99.90
2162;DHT22;1087;50.226;8.682;2023-05-19T05:37:13;12.60;99.90
2162;DHT22;1087;50.226;8.682;2023-05-19T05:39:38;12.60;99.90
2162;DHT22;1087;50.226;8.682;2023-05-19T05:42:04;12.70;99.90
2162;DHT22;1087;50.226;8.682;2023-05-19T05:44:30;12.70;99.90
2162;DHT22;1087;50.226;8.682;2023-05-19T05:46:55;12.70;99.90
2162;DHT22;1087;50.226;8.682;2023-05-19T05:49:21;12.70;99.90
2162;DHT22;1087;50.226;8.682;2023-05-19T05:51:47;12.70;99.90
2162;DHT22;1087;50.226;8.682;2023-05-19T05:54:15;12.60;99.90
2162;DHT22;1087;50.226;8.682;2023-05-19T05:56:42;12.60;99.90
2162;DHT22;1087;50.226;8.682;2023-05-19T05:59:07;12.60;99.90
2162;DHT22;1087;50.226;8.682;2023-05-19T06:01:33;12.70;99.90
2162;DHT22;1087;50.226;8.682;2023-05-19T06:04:00;12.70;99.90
2162;DHT22;1087;50.226;8.682;2023-05-19T06:06:26;12.50;99.90
2162;DHT22;1087;50.226;8.682;2023-05-19T06:08:51;12.70;99.90
2162;DHT22;1087;50.226;8.682;2023-05-19T06:11:17;12.80;99.90
2162;DHT22;1087;50.226;8.682;2023-05-19T06:13:43;12.90;99.90
2162;DHT22;1087;50.226;8.682;2023-05-19T06:16:09;13.00;99.90
2162;DHT22;1087;50.226;8.682;2023-05-19T06:18:34;13.00;99.90
2162;DHT22;1087;50.226;8.682;2023-05-19T06:21:00;12.90;99.90
2162;DHT22;1087;50.226;8.682;2023-05-19T06:23:26;13.10;99.90
2162;DHT22;1087;50.226;8.682;2023-05-19T06:25:53;13.00;99.90
2162;DHT22;1087;50.226;8.682;2023-05-19T06:28:19;13.00;99.90
2162;DHT22;1087;50.226;8.682;2023-05-19T06:30:44;12.90;99.90
2162;DHT22;1087;50.226;8.682;2023-05-19T06:33:10;13.00;99.90
2162;DHT22;1087;50.226;8.682;2023-05-19T06:35:36;13.00;99.90
2162;DHT22;1087;50.226;8.682;2023-05-19T06:38:01;13.10;99.90
2162;DHT22;1087;50.226;8.682;2023-05-19T06:40:27;13.10;99.90
2162;DHT22;1087;50.226;8.682;2023-05-19T06:42:52;13.30;99.90
2162;DHT22;1087;50.226;8.682;2023-05-19T06:45:18;13.30;99.90
2162;DHT22;1087;50.226;8.682;2023-05-19T06:47:46;13.30;99.90
2162;DHT22;1087;50.226;8.682;2023-05-19T06:50:12;13.40;99.90
2162;DHT22;1087;50.226;8.682;2023-05-19T06:52:37;13.50;99.90
2162;DHT22;1087;50.226;8.682;2023-05-19T06:55:03;13.60;99.90
2162;DHT22;1087;50.226;8.682;2023-05-19T06:57:29;13.60;99.90
2162;DHT22;1087;50.226;8.682;2023-05-19T06:59:54;13.70;99.90
2162;DHT22;1087;50.226;8.682;2023-05-19T07:02:20;13.70;99.90
2162;DHT22;1087;50.226;8.682;2023-05-19T07:04:45;13.80;99.90
2162;DHT22;1087;50.226;8.682;2023-05-19T07:07:12;13.70;99.90
2162;DHT22;1087;50.226;8.682;2023-05-19T07:09:37;13.80;99.90
2162;DHT22;1087;50.226;8.682;2023-05-19T07:12:03;13.80;99.90
2162;DHT22;1087;50.226;8.682;2023-05-19T07:14:28;13.90;99.90
2162;DHT22;1087;50.226;8.682;2023-05-19T07:16:54;14.00;99.90
2162;DHT22;1087;50.226;8.682;2023-05-19T07:19:19;14.10;99.90
2162;DHT22;1087;50.226;8.682;2023-05-19T07:21:46;14.10;99.90
2162;DHT22;1087;50.226;8.682;2023-05-19T07:24:11;14.20;99.90
2162;DHT22;1087;50.226;8.682;2023-05-19T07:26:37;14.20;99.90
2162;DHT22;1087;50.226;8.682;2023-05-19T07:29:03;14.20;99.90
2162;DHT22;1087;50.226;8.682;2023-05-19T07:31:28;14.30;99.90
2162;DHT22;1087;50.226;8.682;2023-05-19T07:33:54;14.30;99.90
2162;DHT22;1087;50.226;8.682;2023-05-19T07:36:20;14.40;99.90
2162;DHT22;1087;50.226;8.682;2023-05-19T07:38:46;14.40;99.90
2162;DHT22;1087;50.226;8.682;2023-05-19T07:41:11;14.50;99.90
2162;DHT22;1087;50.226;8.682;2023-05-19T07:43:37;14.60;99.90
2162;DHT22;1087;50.226;8.682;2023-05-19T07:46:03;14.70;99.90
2162;DHT22;1087;50.226;8.682;2023-05-19T07:48:28;14.80;99.90
2162;DHT22;1087;50.226;8.682;2023-05-19T07:50:54;14.90;99.90
2162;DHT22;1087;50.226;8.682;2023-05-19T07:53:20;15.00;99.90
2162;DHT22;1087;50.226;8.682;2023-05-19T07:55:47;15.10;99.90
2162;DHT22;1087;50.226;8.682;2023-05-19T07:58:13;15.20;99.90
2162;DHT22;1087;50.226;8.682;2023-05-19T08:00:38;15.20;99.90
2162;DHT22;1087;50.226;8.682;2023-05-19T08:03:07;15.30;99.90
2162;DHT22;1087;50.226;8.682;2023-05-19T08:05:33;15.30;99.90
2162;DHT22;1087;50.226;8.682;2023-05-19T08:07:59;15.30;99.90
2162;DHT22;1087;50.226;8.682;2023-05-19T08:10:24;15.40;99.90
2162;DHT22;1087;50.226;8.682;2023-05-19T08:12:50;15.40;99.90
2162;DHT22;1087;50.226;8.682;2023-05-19T08:15:15;15.40;99.90
2162;DHT22;1087;50.226;8.682;2023-05-19T08:17:41;15.50;99.90
2162;DHT22;1087;50.226;8.682;2023-05-19T08:20:07;15.60;99.90
2162;DHT22;1087;50.226;8.682;2023-05-19T08:22:34;15.60;99.90
2162;DHT22;1087;50.226;8.682;2023-05-19T08:25:00;15.70;99.90
2162;DHT22;1087;50.226;8.682;2023-05-19T08:27:26;15.70;99.90
2162;DHT22;1087;50.226;8.682;2023-05-19T08:29:51;15.70;99.90
2162;DHT22;1087;50.226;8.682;2023-05-19T08:32:17;15.80;99.90
2162;DHT22;1087;50.226;8.682;2023-05-19T08:34:43;15.90;99.90
2162;DHT22;1087;50.226;8.682;2023-05-19T08:37:08;16.00;99.90
2162;DHT22;1087;50.226;8.682;2023-05-19T08:39:34;16.00;99.90
2162;DHT22;1087;50.226;8.682;2023-05-19T08:42:00;15.90;99.90
2162;DHT22;1087;50.226;8.682;2023-05-19T08:44:26;16.00;99.90
2162;DHT22;1087;50.226;8.682;2023-05-19T08:46:54;16.10;99.90
2162;DHT22;1087;50.226;8.682;2023-05-19T08:49:27;16.20;99.90
2162;DHT22;1087;50.226;8.682;2023-05-19T08:52:08;16.30;99.90
2162;DHT22;1087;50.226;8.682;2023-05-19T08:54:45;16.30;99.90
2162;DHT22;1087;50.226;8.682;2023-05-19T08:57:15;16.30;99.90
2162;DHT22;1087;50.226;8.682;2023-05-19T08:59:42;16.30;99.90
2162;DHT22;1087;50.226;8.682;2023-05-19T09:02:10;16.30;99.90
2162;DHT22;1087;50.226;8.682;2023-05-19T09:04:38;16.40;99.90
2162;DHT22;1087;50.226;8.682;2023-05-19T09:07:04;16.50;99.90
2162;DHT22;1087;50.226;8.682;2023-05-19T09:09:30;16.60;99.90
2162;DHT22;1087;50.226;8.682;2023-05-19T09:11:56;16.70;99.90
2162;DHT22;1087;50.226;8.682;2023-05-19T09:14:22;16.80;99.90
2162;DHT22;1087;50.226;8.682;2023-05-19T09:16:48;16.90;99.90
2162;DHT22;1087;50.226;8.682;2023-05-19T09:19:16;16.90;99.90
2162;DHT22;1087;50.226;8.682;2023-05-19T09:21:42;17.00;99.90
2162;DHT22;1087;50.226;8.682;2023-05-19T09:24:09;17.10;99.90
2162;DHT22;1087;50.226;8.682;2023-05-19T09:26:39;17.20;99.90
2162;DHT22;1087;50.226;8.682;2023-05-19T09:29:17;17.20;99.90
2162;DHT22;1087;50.226;8.682;2023-05-19T09:31:47;17.30;99.90
2162;DHT22;1087;50.226;8.682;2023-05-19T09:34:14;17.30;99.90
2162;DHT22;1087;50.226;8.682;2023-05-19T09:36:40;17.30;99.90
2162;DHT22;1087;50.226;8.682;2023-05-19T09:39:16;17.30;99.90
2162;DHT22;1087;50.226;8.682;2023-05-19T09:41:42;17.30;99.90
2162;DHT22;1087;50.226;8.682;2023-05-19T09:44:21;17.30;99.90
2162;DHT22;1087;50.226;8.682;2023-05-19T09:46:51;17.40;99.90
2162;DHT22;1087;50.226;8.682;2023-05-19T09:49:21;17.40;99.90
2162;DHT22;1087;50.226;8.682;2023-05-19T09:52:01;17.40;99.90
2162;DHT22;1087;50.226;8.682;2023-05-19T09:54:28;17.50;99.90
2162;DHT22;1087;50.226;8.682;2023-05-19T09:57:00;17.60;99.90
2162;DHT22;1087;50.226;8.682;2023-05-19T09:59:27;17.70;99.90
2162;DHT22;1087;50.226;8.682;2023-05-19T10:02:00;17.80;99.90
2162;DHT22;1087;50.226;8.682;2023-05-19T10:04:28;17.90;99.90
2162;DHT22;1087;50.226;8.682;2023-05-19T10:06:56;17.90;99.90
2162;DHT22;1087;50.226;8.682;2023-05-19T10:09:26;18.00;99.90
2162;DHT22;1087;50.226;8.682;2023-05-19T10:11:53;18.00;99.90
2162;DHT22;1087;50.226;8.682;2023-05-19T10:14:26;17.90;99.90
2162;DHT22;1087;50.226;8.682;2023-05-19T10:16:53;17.80;99.90
2162;DHT22;1087;50.226;8.682;2023-05-19T10:19:20;17.80;99.90
2162;DHT22;1087;50.226;8.682;2023-05-19T10:21:47;17.90;99.90
2162;DHT22;1087;50.226;8.682;2023-05-19T10:24:12;17.80;99.90
2162;DHT22;1087;50.226;8.682;2023-05-19T10:26:40;17.80;99.90
2162;DHT22;1087;50.226;8.682;2023-05-19T10:29:07;17.80;99.90
2162;DHT22;1087;50.226;8.682;2023-05-19T10:31:33;17.90;99.90
2162;DHT22;1087;50.226;8.682;2023-05-19T10:36:44;18.00;99.90
2162;DHT22;1087;50.226;8.682;2023-05-19T10:39:15;18.00;99.90
2162;DHT22;1087;50.226;8.682;2023-05-19T10:42:12;18.00;99.90
2162;DHT22;1087;50.226;8.682;2023-05-19T10:44:57;18.00;99.90
2162;DHT22;1087;50.226;8.682;2023-05-19T10:47:26;18.00;99.90
2162;DHT22;1087;50.226;8.682;2023-05-19T10:49:52;18.00;99.90
2162;DHT22;1087;50.226;8.682;2023-05-19T10:52:22;17.90;99.90
2162;DHT22;1087;50.226;8.682;2023-05-19T10:54:50;17.90;99.90
2162;DHT22;1087;50.226;8.682;2023-05-19T10:57:16;17.90;99.90
2162;DHT22;1087;50.226;8.682;2023-05-19T10:59:42;18.00;99.90
2162;DHT22;1087;50.226;8.682;2023-05-19T11:02:41;18.00;99.90
2162;DHT22;1087;50.226;8.682;2023-05-19T11:05:14;18.10;99.90
2162;DHT22;1087;50.226;8.682;2023-05-19T11:07:58;18.10;99.90
2162;DHT22;1087;50.226;8.682;2023-05-19T11:10:30;18.20;99.90
2162;DHT22;1087;50.226;8.682;2023-05-19T11:12:56;18.20;99.90
2162;DHT22;1087;50.226;8.682;2023-05-19T11:15:24;18.30;99.90
2162;DHT22;1087;50.226;8.682;2023-05-19T11:17:51;18.30;99.90
2162;DHT22;1087;50.226;8.682;2023-05-19T11:20:24;18.40;99.90
2162;DHT22;1087;50.226;8.682;2023-05-19T11:23:06;18.40;99.90
2162;DHT22;1087;50.226;8.682;2023-05-19T11:25:47;18.50;99.90
2162;DHT22;1087;50.226;8.682;2023-05-19T11:28:15;18.50;99.90
2162;DHT22;1087;50.226;8.682;2023-05-19T11:30:43;18.60;99.90
2162;DHT22;1087;50.226;8.682;2023-05-19T11:33:09;18.70;99.90
2162;DHT22;1087;50.226;8.682;2023-05-19T11:35:35;18.70;99.90
2162;DHT22;1087;50.226;8.682;2023-05-19T11:38:01;18.80;99.90
2162;DHT22;1087;50.226;8.682;2023-05-19T11:40:28;18.90;99.90
2162;DHT22;1087;50.226;8.682;2023-05-19T11:42:54;18.90;99.90
2162;DHT22;1087;50.226;8.682;2023-05-19T11:45:24;19.00;99.90
2162;DHT22;1087;50.226;8.682;2023-05-19T11:47:50;19.00;99.90
2162;DHT22;1087;50.226;8.682;2023-05-19T11:50:16;19.00;99.90
2162;DHT22;1087;50.226;8.682;2023-05-19T11:52:45;19.00;99.90
2162;DHT22;1087;50.226;8.682;2023-05-19T11:55:21;19.00;99.90
2162;DHT22;1087;50.226;8.682;2023-05-19T11:58:05;19.10;99.90
2162;DHT22;1087;50.226;8.682;2023-05-19T12:00:38;19.10;99.90
2162;DHT22;1087;50.226;8.682;2023-05-19T12:03:04;19.10;99.90
2162;DHT22;1087;50.226;8.682;2023-05-19T12:05:30;19.20;99.90
2162;DHT22;1087;50.226;8.682;2023-05-19T12:07:56;19.10;99.90
2162;DHT22;1087;50.226;8.682;2023-05-19T12:10:29;19.10;99.90
2162;DHT22;1087;50.226;8.682;2023-05-19T12:12:55;19.10;99.90
2162;DHT22;1087;50.226;8.682;2023-05-19T12:15:23;19.10;99.90
2162;DHT22;1087;50.226;8.682;2023-05-19T12:17:57;19.20;99.90
2162;DHT22;1087;50.226;8.682;2023-05-19T12:20:24;19.20;99.90
2162;DHT22;1087;50.226;8.682;2023-05-19T12:22:50;19.30;99.90
2162;DHT22;1087;50.226;8.682;2023-05-19T12:25:16;19.20;99.90
2162;DHT22;1087;50.226;8.682;2023-05-19T12:27:42;19.30;99.90
2162;DHT22;1087;50.226;8.682;2023-05-19T12:30:09;19.30;99.90
2162;DHT22;1087;50.226;8.682;2023-05-19T12:32:36;19.30;99.90
2162;DHT22;1087;50.226;8.682;2023-05-19T12:35:03;19.30;99.90
2162;DHT22;1087;50.226;8.682;2023-05-19T12:37:30;19.40;99.90
2162;DHT22;1087;50.226;8.682;2023-05-19T12:39:58;19.40;99.90
2162;DHT22;1087;50.226;8.682;2023-05-19T12:42:27;19.40;99.90
2162;DHT22;1087;50.226;8.682;2023-05-19T12:44:57;19.40;99.90
2162;DHT22;1087;50.226;8.682;2023-05-19T12:47:29;19.40;99.90
2162;DHT22;1087;50.226;8.682;2023-05-19T12:50:00;19.40;99.90
2162;DHT22;1087;50.226;8.682;2023-05-19T12:52:27;19.50;99.90
2162;DHT22;1087;50.226;8.682;2023-05-19T12:55:04;19.50;99.90
2162;DHT22;1087;50.226;8.682;2023-05-19T12:57:34;19.50;99.90
2162;DHT22;1087;50.226;8.682;2023-05-19T13:00:13;19.50;99.90
2162;DHT22;1087;50.226;8.682;2023-05-19T13:02:57;19.50;99.90
2162;DHT22;1087;50.226;8.682;2023-05-19T13:05:23;19.50;99.90
2162;DHT22;1087;50.226;8.682;2023-05-19T13:07:57;19.50;99.90
2162;DHT22;1087;50.226;8.682;2023-05-19T13:10:23;19.50;99.90
2162;DHT22;1087;50.226;8.682;2023-05-19T13:12:51;19.60;99.90
2162;DHT22;1087;50.226;8.682;2023-05-19T13:15:17;19.60;99.90
2162;DHT22;1087;50.226;8.682;2023-05-19T13:17:43;19.70;99.90
2162;DHT22;1087;50.226;8.682;2023-05-19T13:20:11;19.80;99.90
2162;DHT22;1087;50.226;8.682;2023-05-19T13:22:36;19.90;99.90
2162;DHT22;1087;50.226;8.682;2023-05-19T13:25:02;20.00;99.90
2162;DHT22;1087;50.226;8.682;2023-05-19T13:27:27;20.00;99.90
2162;DHT22;1087;50.226;8.682;2023-05-19T13:29:53;20.00;99.90
2162;DHT22;1087;50.226;8.682;2023-05-19T13:32:19;20.00;99.90
2162;DHT22;1087;50.226;8.682;2023-05-19T13:34:44;20.00;99.90
2162;DHT22;1087;50.226;8.682;2023-05-19T13:37:10;20.10;99.90
2162;DHT22;1087;50.226;8.682;2023-05-19T13:39:36;20.20;99.90
2162;DHT22;1087;50.226;8.682;2023-05-19T13:42:02;20.20;99.90
2162;DHT22;1087;50.226;8.682;2023-05-19T13:44:29;20.20;99.90
2162;DHT22;1087;50.226;8.682;2023-05-19T13:46:54;20.20;99.90
2162;DHT22;1087;50.226;8.682;2023-05-19T13:49:20;20.20;99.90
2162;DHT22;1087;50.226;8.682;2023-05-19T13:51:46;20.10;99.90
2162;DHT22;1087;50.226;8.682;2023-05-19T13:54:11;20.10;99.90
2162;DHT22;1087;50.226;8.682;2023-05-19T13:56:36;20.20;99.90
2162;DHT22;1087;50.226;8.682;2023-05-19T13:59:02;20.10;99.90
2162;DHT22;1087;50.226;8.682;2023-05-19T14:01:28;20.20;99.90
2162;DHT22;1087;50.226;8.682;2023-05-19T14:03:54;20.20;99.90
2162;DHT22;1087;50.226;8.682;2023-05-19T14:06:20;20.30;99.90
2162;DHT22;1087;50.226;8.682;2023-05-19T14:08:45;20.40;99.90
2162;DHT22;1087;50.226;8.682;2023-05-19T14:11:17;20.40;99.90
2162;DHT22;1087;50.226;8.682;2023-05-19T14:13:48;20.40;99.90
2162;DHT22;1087;50.226;8.682;2023-05-19T14:16:15;20.40;99.90
2162;DHT22;1087;50.226;8.682;2023-05-19T14:18:41;20.40;99.90
2162;DHT22;1087;50.226;8.682;2023-05-19T14:21:07;20.50;99.90
2162;DHT22;1087;50.226;8.682;2023-05-19T14:23:33;20.50;99.90
2162;DHT22;1087;50.226;8.682;2023-05-19T14:25:58;20.50;99.90
2162;DHT22;1087;50.226;8.682;2023-05-19T14:28:24;20.50;99.90
2162;DHT22;1087;50.226;8.682;2023-05-19T14:30:50;20.50;99.90
2162;DHT22;1087;50.226;8.682;2023-05-19T14:33:16;20.50;99.90
2162;DHT22;1087;50.226;8.682;2023-05-19T14:35:41;20.40;99.90
2162;DHT22;1087;50.226;8.682;2023-05-19T14:38:07;20.40;99.90
2162;DHT22;1087;50.226;8.682;2023-05-19T14:40:35;20.30;99.90
2162;DHT22;1087;50.226;8.682;2023-05-19T14:43:00;20.40;99.90
2162;DHT22;1087;50.226;8.682;2023-05-19T14:45:26;20.40;99.90
2162;DHT22;1087;50.226;8.682;2023-05-19T14:47:51;20.50;99.90
2162;DHT22;1087;50.226;8.682;2023-05-19T14:50:17;20.50;99.90
2162;DHT22;1087;50.226;8.682;2023-05-19T14:52:42;20.50;99.90
2162;DHT22;1087;50.226;8.682;2023-05-19T14:55:08;20.50;99.90
2162;DHT22;1087;50.226;8.682;2023-05-19T14:57:34;20.50;99.90
2162;DHT22;1087;50.226;8.682;2023-05-19T14:59:59;20.50;99.90
2162;DHT22;1087;50.226;8.682;2023-05-19T15:02:25;20.50;99.90
2162;DHT22;1087;50.226;8.682;2023-05-19T15:04:50;20.60;99.90
2162;DHT22;1087;50.226;8.682;2023-05-19T15:07:16;20.70;99.90
2162;DHT22;1087;50.226;8.682;2023-05-19T15:09:41;20.60;99.90
2162;DHT22;1087;50.226;8.682;2023-05-19T15:12:07;20.60;99.90
2162;DHT22;1087;50.226;8.682;2023-05-19T15:14:32;20.50;99.90
2162;DHT22;1087;50.226;8.682;2023-05-19T15:16:58;20.40;99.90
2162;DHT22;1087;50.226;8.682;2023-05-19T15:19:24;20.30;99.90
2162;DHT22;1087;50.226;8.682;2023-05-19T15:21:50;20.30;99.90
2162;DHT22;1087;50.226;8.682;2023-05-19T15:24:15;20.20;99.90
2162;DHT22;1087;50.226;8.682;2023-05-19T15:26:41;20.30;99.90
2162;DHT22;1087;50.226;8.682;2023-05-19T15:29:06;20.30;99.90
2162;DHT22;1087;50.226;8.682;2023-05-19T15:31:32;20.40;99.90
2162;DHT22;1087;50.226;8.682;2023-05-19T15:33:57;20.40;99.90
2162;DHT22;1087;50.226;8.682;2023-05-19T15:36:23;20.30;99.90
2162;DHT22;1087;50.226;8.682;2023-05-19T15:38:48;20.30;99.90
2162;DHT22;1087;50.226;8.682;2023-05-19T15:41:14;20.20;99.90
2162;DHT22;1087;50.226;8.682;2023-05-19T15:43:39;20.20;99.90
2162;DHT22;1087;50.226;8.682;2023-05-19T15:46:06;20.30;99.90
2162;DHT22;1087;50.226;8.682;2023-05-19T15:48:31;20.30;99.90
2162;DHT22;1087;50.226;8.682;2023-05-19T15:51:00;20.30;99.90
2162;DHT22;1087;50.226;8.682;2023-05-19T15:53:25;20.20;99.90
2162;DHT22;1087;50.226;8.682;2023-05-19T15:55:51;20.20;99.90
2162;DHT22;1087;50.226;8.682;2023-05-19T15:58:16;20.20;99.90
2162;DHT22;1087;50.226;8.682;2023-05-19T16:00:43;20.10;99.90
2162;DHT22;1087;50.226;8.682;2023-05-19T16:03:08;20.10;99.90
2162;DHT22;1087;50.226;8.682;2023-05-19T16:05:34;20.10;99.90
2162;DHT22;1087;50.226;8.682;2023-05-19T16:08:00;20.10;99.90
2162;DHT22;1087;50.226;8.682;2023-05-19T16:10:25;20.00;99.90
2162;DHT22;1087;50.226;8.682;2023-05-19T16:12:51;20.10;99.90
2162;DHT22;1087;50.226;8.682;2023-05-19T16:15:16;20.00;99.90
2162;DHT22;1087;50.226;8.682;2023-05-19T16:17:42;20.00;99.90